WEY36B LPCS-LPCS

Flight info

Callsign WEY36B
Flight time 0h 23m
Altitude 1500
Route CCAIS
Aircraft BR23/L-VGD/A

Departure

Time 2026-04-21 20:20
Airport Cascais Airport (LPCS)

Arrival

Time 2026-04-21 20:44
Airport Cascais Airport (LPCS)
Time Latitude Longitude Altitude Speed Heading
2026-04-21 20:13 38.72303 -9.35353 308 ft 0 kts 154°
2026-04-21 20:15 38.72300 -9.35340 308 ft 1 kts 50°
2026-04-21 20:15 38.72306 -9.35338 308 ft 3 kts 340°
2026-04-21 20:15 38.72329 -9.35352 309 ft 6 kts 329°
2026-04-21 20:16 38.72377 -9.35392 311 ft 2 kts 278°
2026-04-21 20:16 38.72365 -9.35447 310 ft 15 kts 271°
2026-04-21 20:16 38.72488 -9.35512 311 ft 25 kts 345°
2026-04-21 20:16 38.72658 -9.35574 318 ft 22 kts 343°
2026-04-21 20:17 38.72832 -9.35642 324 ft 25 kts 345°
2026-04-21 20:17 38.72941 -9.35693 331 ft 11 kts 336°
2026-04-21 20:17 38.72942 -9.35676 333 ft 5 kts 181°
2026-04-21 20:17 38.72762 -9.35611 322 ft 58 kts 165°
2026-04-21 20:18 38.72449 -9.35496 360 ft 76 kts 165°
2026-04-21 20:18 38.71790 -9.35258 598 ft 69 kts 168°
2026-04-21 20:18 38.71273 -9.35109 567 ft 86 kts 182°
2026-04-21 20:18 38.70795 -9.35419 654 ft 76 kts 241°
2026-04-21 20:19 38.70644 -9.36051 786 ft 81 kts 275°
2026-04-21 20:19 38.70700 -9.36829 773 ft 90 kts 279°
2026-04-21 20:19 38.70717 -9.37181 783 ft 88 kts 276°
2026-04-21 20:19 38.70687 -9.37847 845 ft 88 kts 268°
2026-04-21 20:20 38.70679 -9.38625 896 ft 87 kts 282°
2026-04-21 20:20 38.70793 -9.39396 963 ft 89 kts 282°
2026-04-21 20:20 38.70893 -9.40180 1018 ft 91 kts 282°
2026-04-21 20:20 38.70820 -9.40997 1022 ft 99 kts 248°
2026-04-21 20:21 38.70531 -9.41807 1021 ft 102 kts 251°
2026-04-21 20:21 38.70269 -9.42616 1017 ft 96 kts 253°
2026-04-21 20:21 38.69994 -9.43369 1063 ft 89 kts 252°
2026-04-21 20:21 38.69733 -9.44067 1146 ft 85 kts 251°
2026-04-21 20:22 38.69492 -9.44741 1222 ft 81 kts 251°
2026-04-21 20:22 38.69041 -9.45945 1432 ft 71 kts 252°
2026-04-21 20:22 38.68819 -9.46511 1505 ft 73 kts 251°
2026-04-21 20:23 38.68627 -9.47155 1522 ft 82 kts 257°
2026-04-21 20:23 38.68450 -9.47869 1523 ft 84 kts 258°
2026-04-21 20:23 38.68615 -9.48527 1501 ft 83 kts 311°
2026-04-21 20:23 38.68988 -9.49095 1508 ft 84 kts 309°
2026-04-21 20:24 38.69475 -9.49420 1501 ft 84 kts 336°
2026-04-21 20:24 38.69965 -9.49719 1591 ft 81 kts 331°
2026-04-21 20:24 38.70491 -9.50021 1606 ft 84 kts 338°
2026-04-21 20:24 38.71004 -9.50366 1605 ft 82 kts 345°
2026-04-21 20:25 38.71568 -9.50416 1607 ft 81 kts 356°
2026-04-21 20:25 38.72129 -9.50468 1609 ft 81 kts 356°
2026-04-21 20:25 38.72690 -9.50521 1612 ft 81 kts 356°
2026-04-21 20:25 38.73251 -9.50572 1614 ft 81 kts 356°
2026-04-21 20:26 38.73813 -9.50623 1615 ft 81 kts 357°
2026-04-21 20:26 38.74248 -9.50238 1601 ft 90 kts 71°
2026-04-21 20:26 38.73944 -9.49547 1606 ft 104 kts 154°
2026-04-21 20:26 38.73228 -9.49471 1607 ft 104 kts 176°
2026-04-21 20:27 38.72505 -9.49406 1611 ft 104 kts 175°
2026-04-21 20:27 38.71781 -9.49345 1615 ft 105 kts 175°
2026-04-21 20:27 38.71054 -9.49283 1620 ft 105 kts 175°
2026-04-21 20:27 38.70328 -9.49255 1618 ft 104 kts 192°
2026-04-21 20:28 38.69885 -9.49858 1600 ft 93 kts 275°
2026-04-21 20:28 38.70231 -9.50379 1602 ft 80 kts 355°
2026-04-21 20:28 38.70785 -9.50419 1611 ft 80 kts 354°
2026-04-21 20:28 38.71341 -9.50483 1617 ft 80 kts 355°
2026-04-21 20:29 38.71891 -9.50544 1623 ft 80 kts 355°
2026-04-21 20:29 38.72450 -9.50607 1623 ft 81 kts 355°
2026-04-21 20:29 38.72958 -9.50854 1618 ft 85 kts 307°
2026-04-21 20:29 38.72825 -9.51600 1610 ft 102 kts 221°
2026-04-21 20:30 38.72126 -9.51698 1608 ft 104 kts 172°
2026-04-21 20:30 38.71404 -9.51632 1614 ft 104 kts 175°
2026-04-21 20:30 38.70681 -9.51570 1621 ft 104 kts 175°
2026-04-21 20:30 38.69958 -9.51506 1623 ft 104 kts 175°
2026-04-21 20:31 38.69233 -9.51440 1623 ft 104 kts 174°
2026-04-21 20:31 38.68687 -9.50976 1609 ft 96 kts 100°
2026-04-21 20:31 38.68913 -9.50335 1609 ft 81 kts 14°
2026-04-21 20:31 38.69465 -9.50389 1610 ft 80 kts 355°
2026-04-21 20:32 38.70021 -9.50450 1616 ft 80 kts 355°
2026-04-21 20:32 38.70579 -9.50516 1622 ft 81 kts 355°
2026-04-21 20:32 38.71139 -9.50585 1624 ft 81 kts 355°
2026-04-21 20:32 38.71692 -9.50700 1622 ft 82 kts 333°
2026-04-21 20:33 38.71828 -9.51393 1619 ft 98 kts 248°
2026-04-21 20:33 38.71216 -9.51738 1606 ft 104 kts 172°
2026-04-21 20:33 38.70497 -9.51649 1612 ft 104 kts 175°
2026-04-21 20:33 38.69785 -9.51580 1619 ft 104 kts 175°
2026-04-21 20:34 38.69063 -9.51510 1624 ft 104 kts 175°
2026-04-21 20:34 38.68337 -9.51436 1621 ft 105 kts 174°
2026-04-21 20:34 38.67616 -9.51431 1615 ft 104 kts 201°
2026-04-21 20:34 38.67262 -9.52103 1603 ft 90 kts 285°
2026-04-21 20:35 38.67672 -9.52523 1605 ft 79 kts 358°
2026-04-21 20:35 38.68223 -9.52583 1610 ft 80 kts 353°
2026-04-21 20:35 38.68777 -9.52661 1617 ft 80 kts 354°
2026-04-21 20:35 38.69326 -9.52737 1622 ft 81 kts 354°
2026-04-21 20:36 38.69884 -9.52815 1624 ft 81 kts 354°
2026-04-21 20:36 38.70394 -9.52619 1614 ft 86 kts 51°
2026-04-21 20:36 38.70280 -9.51866 1600 ft 102 kts 136°
2026-04-21 20:36 38.69591 -9.51681 1609 ft 103 kts 176°
2026-04-21 20:37 38.68875 -9.51597 1615 ft 104 kts 174°
2026-04-21 20:37 38.68155 -9.51504 1620 ft 103 kts 167°
2026-04-21 20:37 38.67705 -9.50923 1609 ft 93 kts 87°
2026-04-21 20:37 38.67705 -9.50110 1615 ft 92 kts 84°
2026-04-21 20:38 38.67683 -9.49295 1622 ft 92 kts 84°
2026-04-21 20:38 38.67671 -9.48489 1623 ft 90 kts 77°
2026-04-21 20:38 38.67924 -9.47802 1624 ft 85 kts 53°
2026-04-21 20:38 38.68227 -9.47145 1624 ft 86 kts 53°
2026-04-21 20:39 38.68531 -9.46483 1625 ft 86 kts 53°
2026-04-21 20:39 38.68837 -9.45818 1623 ft 87 kts 53°
2026-04-21 20:39 38.69144 -9.45155 1621 ft 87 kts 52°
2026-04-21 20:39 38.69421 -9.44469 1623 ft 89 kts 65°
2026-04-21 20:40 38.69544 -9.43690 1626 ft 90 kts 72°
2026-04-21 20:40 38.69667 -9.42865 1623 ft 98 kts 71°
2026-04-21 20:40 38.69803 -9.42001 1621 ft 100 kts 73°
2026-04-21 20:40 38.69900 -9.41160 1584 ft 92 kts 74°
2026-04-21 20:41 38.69981 -9.40397 1439 ft 82 kts 75°
2026-04-21 20:41 38.70048 -9.39685 1281 ft 80 kts 74°
2026-04-21 20:41 38.70112 -9.38981 1115 ft 81 kts 75°
2026-04-21 20:41 38.70178 -9.38260 1106 ft 84 kts 74°
2026-04-21 20:42 38.70262 -9.37513 1106 ft 85 kts 73°
2026-04-21 20:42 38.70327 -9.36776 1055 ft 77 kts 77°
2026-04-21 20:42 38.70375 -9.36158 951 ft 66 kts 74°
2026-04-21 20:42 38.70459 -9.35604 810 ft 61 kts 68°
2026-04-21 20:43 38.70634 -9.35122 677 ft 59 kts 45°
2026-04-21 20:43 38.70963 -9.34958 577 ft 62 kts 344°
2026-04-21 20:43 38.71417 -9.35126 478 ft 69 kts 347°
2026-04-21 20:43 38.71863 -9.35285 331 ft 64 kts 345°
2026-04-21 20:44 38.72241 -9.35421 304 ft 34 kts 344°
2026-04-21 20:44 38.72312 -9.35417 308 ft 5 kts 71°
2026-04-21 20:44 38.72316 -9.35400 309 ft 1 kts 67°
2026-04-21 20:44 38.72323 -9.35374 309 ft 7 kts 85°
2026-04-21 20:45 38.72322 -9.35268 309 ft 8 kts 53°
2026-04-21 20:45 38.72333 -9.35264 310 ft 0 kts 321°